Time;durP1;ratioP1;P1;durP2;ratioP2;P2;SDS_P1;SDS_P2;PMS_P1;PMS_P2;Temp;Humidity;BMP_temperature;BMP_pressure;BME280_temperature;BME280_humidity;BME280_pressure;Samples;Min_cycle;Max_cycle;Signal;HPM_P1;HPM_P2
2024/01/13 00:00:09;;;;;;;14.60;12.55;;;7.60;99.90;;;7.81;94.78;102777.94;4972642;28;20054;-62
2024/01/13 00:02:38;;;;;;;14.95;13.35;;;7.60;99.90;;;7.82;95.05;102770.94;4973630;28;20074;-64
2024/01/13 00:05:07;;;;;;;15.48;13.80;;;7.60;99.90;;;7.82;94.90;102756.00;4973890;28;20070;-66
2024/01/13 00:07:37;;;;;;;15.70;13.50;;;7.60;99.90;;;7.76;94.89;102762.81;4973486;28;20074;-66
2024/01/13 00:10:06;;;;;;;16.25;14.65;;;7.50;99.90;;;7.71;95.25;102757.34;4988667;28;20051;-63
2024/01/13 00:12:35;;;;;;;16.40;14.45;;;7.50;99.90;;;7.72;95.08;102746.00;4988517;28;20404;-64
2024/01/13 00:15:04;;;;;;;16.38;14.75;;;7.50;99.90;;;7.74;95.11;102754.81;4973033;28;20109;-64
2024/01/13 00:17:32;;;;;;;16.10;14.50;;;7.50;99.90;;;7.64;95.57;102746.53;4973217;28;20051;-63
2024/01/13 00:20:01;;;;;;;16.73;15.10;;;7.40;99.90;;;7.68;95.76;102751.09;4973491;28;20052;-64
2024/01/13 00:22:29;;;;;;;16.55;14.85;;;7.40;99.90;;;7.27;95.67;102692.50;4973434;28;20042;-65
2024/01/13 00:24:59;;;;;;;18.33;14.45;;;7.40;99.90;;;7.67;95.43;102742.28;4973125;28;20097;-64
2024/01/13 00:27:27;;;;;;;16.48;14.77;;;7.40;99.90;;;7.63;95.76;102736.81;4973404;28;20054;-65
2024/01/13 00:29:56;;;;;;;15.50;14.00;;;7.40;99.90;;;7.67;96.15;102730.84;4973870;28;20035;-64
2024/01/13 00:32:24;;;;;;;17.48;15.20;;;7.40;99.90;;;7.65;95.91;102730.78;4972948;28;20050;-65
2024/01/13 00:34:53;;;;;;;17.23;15.43;;;7.40;99.90;;;7.67;95.87;102729.09;4973352;28;20556;-66
2024/01/13 00:37:21;;;;;;;17.73;16.02;;;7.40;99.90;;;7.64;95.95;102728.09;4972809;28;20094;-64
2024/01/13 00:39:49;;;;;;;17.38;15.60;;;7.40;99.90;;;7.62;96.42;102725.41;4973233;28;20433;-65
2024/01/13 00:42:19;;;;;;;17.50;15.65;;;7.40;99.90;;;7.59;96.68;102727.91;4971906;28;20062;-64
2024/01/13 00:44:48;;;;;;;18.35;16.45;;;7.30;99.90;;;7.66;97.03;102726.41;4973367;28;20058;-66
2024/01/13 00:47:16;;;;;;;19.42;17.50;;;7.40;99.90;;;7.68;97.16;102720.38;4972960;28;20035;-65
2024/01/13 00:49:44;;;;;;;21.27;19.02;;;7.40;99.90;;;7.68;96.80;102714.22;4972888;28;20086;-65
2024/01/13 00:52:13;;;;;;;22.55;19.40;;;7.40;99.90;;;7.71;96.85;102707.31;4972713;28;20047;-65
2024/01/13 00:54:43;;;;;;;28.98;18.48;;;7.50;99.90;;;6.95;96.84;102573.72;4972662;28;20456;-64
2024/01/13 00:57:11;;;;;;;25.63;19.30;;;7.40;99.90;;;7.67;97.07;102701.88;4972857;28;20047;-64
2024/01/13 00:59:41;;;;;;;21.83;17.80;;;7.40;99.90;;;7.65;97.54;102704.44;4972664;28;20109;-65
2024/01/13 01:02:10;;;;;;;20.23;17.15;;;7.40;99.90;;;7.62;97.32;102699.09;4971566;28;20050;-66
2024/01/13 01:04:38;;;;;;;19.13;17.00;;;7.40;99.90;;;7.68;97.15;102701.94;4987630;28;20085;-64
2024/01/13 01:07:06;;;;;;;18.77;16.67;;;7.40;99.90;;;7.68;97.27;102704.59;4972406;28;20047;-64
2024/01/13 01:09:35;;;;;;;18.42;16.50;;;7.40;99.90;;;7.68;97.29;102698.41;4972717;28;20050;-64
2024/01/13 01:12:04;;;;;;;18.70;16.05;;;7.40;99.90;;;7.65;97.43;102693.91;4972415;28;20050;-64
2024/01/13 01:14:33;;;;;;;18.17;15.45;;;7.40;99.90;;;7.67;96.92;102692.22;4972399;28;20042;-64
2024/01/13 01:17:03;;;;;;;19.52;16.38;;;7.40;99.90;;;7.67;97.19;102684.34;4972529;28;20047;-63
2024/01/13 01:19:31;;;;;;;18.98;15.80;;;7.40;99.90;;;7.62;97.48;102685.91;4972280;28;20054;-65
2024/01/13 01:22:00;;;;;;;17.25;14.90;;;7.40;99.90;;;7.68;97.28;102693.13;4971535;28;20047;-64
2024/01/13 01:24:28;;;;;;;17.80;15.05;;;7.40;99.90;;;7.65;97.06;102682.47;4972188;28;20162;-64
2024/01/13 01:26:57;;;;;;;18.90;15.38;;;7.40;99.90;;;7.69;97.20;102684.38;4970583;28;20054;-64
2024/01/13 01:29:25;;;;;;;19.95;14.93;;;7.40;99.90;;;7.63;96.88;102684.16;4971019;28;20058;-64
2024/01/13 01:31:54;;;;;;;20.30;15.38;;;7.40;99.90;;;7.58;97.31;102673.47;4972432;28;20050;-64
2024/01/13 01:34:24;;;;;;;22.38;16.02;;;7.40;99.90;;;7.59;97.18;102675.25;4972548;28;20062;-65
2024/01/13 01:36:52;;;;;;;17.85;14.68;;;7.30;99.90;;;7.51;97.25;102667.94;4972446;28;20111;-64
2024/01/13 01:39:21;;;;;;;17.90;14.80;;;7.40;99.90;;;7.63;97.31;102686.78;4972004;28;20109;-64
2024/01/13 01:41:49;;;;;;;18.98;15.43;;;7.40;99.90;;;7.60;97.09;102673.53;4972258;28;20038;-64
2024/01/13 01:44:18;;;;;;;19.33;14.20;;;7.30;99.90;;;7.63;97.64;102668.34;4972035;28;20061;-64
2024/01/13 01:46:48;;;;;;;18.60;14.95;;;7.40;99.90;;;7.47;97.43;102630.03;4970952;28;20062;-64
2024/01/13 01:49:18;;;;;;;16.73;14.18;;;7.40;99.90;;;7.63;97.07;102679.78;4987201;28;20482;-64
2024/01/13 01:51:48;;;;;;;16.77;13.32;;;7.40;99.90;;;7.67;97.08;102671.16;4972167;28;20043;-64
2024/01/13 01:54:17;;;;;;;18.20;12.80;;;7.40;99.90;;;7.66;97.13;102664.13;4972174;28;20043;-64
2024/01/13 01:56:46;;;;;;;16.45;12.52;;;7.40;99.90;;;7.70;97.21;102659.84;4970851;28;20137;-65
2024/01/13 01:59:15;;;;;;;12.95;11.50;;;7.40;99.90;;;7.74;97.11;102648.59;4970777;28;20039;-64
2024/01/13 02:01:45;;;;;;;13.30;11.90;;;7.50;99.90;;;7.78;96.85;102647.84;4972123;28;20073;-65
2024/01/13 02:04:14;;;;;;;;;;;7.50;99.90;;;7.82;96.91;102645.38;4972375;28;20065;-65
2024/01/13 02:06:43;;;;;;;11.30;10.10;;;7.60;99.90;;;7.85;96.48;102644.59;4986950;28;19926;-64
2024/01/13 02:09:13;;;;;;;11.98;10.68;;;7.70;99.90;;;7.64;96.54;102602.59;4986650;28;20141;-63
2024/01/13 02:11:42;;;;;;;13.85;11.85;;;7.70;99.90;;;7.80;96.48;102633.88;4972293;28;20043;-64
2024/01/13 02:14:10;;;;;;;12.52;11.23;;;7.60;99.90;;;7.73;96.52;102639.78;4971729;28;20449;-64
2024/01/13 02:16:39;;;;;;;13.63;11.63;;;7.50;99.90;;;7.59;96.75;102608.56;4971637;28;20052;-63
2024/01/13 02:19:07;;;;;;;12.68;11.38;;;7.50;99.90;;;7.74;96.00;102631.03;4971641;28;20070;-64
2024/01/13 02:21:38;;;;;;;14.85;11.13;;;7.50;99.90;;;7.76;96.29;102618.81;4971768;28;20054;-64
2024/01/13 02:24:07;;;;;;;12.25;10.98;;;7.50;99.90;;;7.78;96.13;102622.38;4971742;28;20105;-63
2024/01/13 02:26:37;;;;;;;12.23;10.93;;;7.60;99.90;;;7.80;96.03;102620.69;4971818;28;20479;-65
2024/01/13 02:29:06;;;;;;;11.38;10.25;;;7.60;99.90;;;7.74;96.11;102619.63;4972163;28;20400;-64
2024/01/13 02:31:34;;;;;;;13.20;10.73;;;7.50;99.90;;;7.75;96.26;102614.41;4986307;28;20047;-65
2024/01/13 02:34:03;;;;;;;17.13;11.07;;;7.50;99.90;;;7.75;96.25;102605.59;4971918;28;20056;-63
2024/01/13 02:36:31;;;;;;;11.27;10.18;;;7.50;99.90;;;7.73;96.44;102599.38;4971552;28;20054;-65
2024/01/13 02:39:01;;;;;;;11.07;9.98;;;7.50;99.90;;;7.71;96.44;102599.31;4973493;28;20070;-64
2024/01/13 02:41:30;;;;;;;10.70;9.68;;;7.40;99.90;;;7.69;96.51;102597.47;4975404;28;20049;-65
2024/01/13 02:43:58;;;;;;;10.85;9.73;;;7.40;99.90;;;7.67;96.37;102585.97;4975298;28;20039;-64
2024/01/13 02:46:27;;;;;;;10.30;9.32;;;7.40;99.90;;;7.71;96.23;102580.88;4975045;28;20642;-64
2024/01/13 02:48:58;;;;;;;11.23;9.93;;;7.50;99.90;;;7.74;96.08;102582.75;4975122;28;20554;-63
2024/01/13 02:51:27;;;;;;;10.70;9.70;;;7.50;99.90;;;7.75;96.06;102585.41;4975071;28;20053;-64
2024/01/13 02:53:56;;;;;;;9.90;8.90;;;7.50;99.90;;;7.66;96.81;102592.09;4974964;28;20054;-64
2024/01/13 02:56:26;;;;;;;11.77;9.95;;;7.40;99.90;;;7.45;97.35;102584.38;4974884;28;20043;-64
2024/01/13 02:58:54;;;;;;;11.00;9.88;;;7.20;99.90;;;7.60;98.13;102579.63;4974728;28;20074;-64
2024/01/13 03:01:23;;;;;;;9.75;8.80;;;7.30;99.90;;;7.67;98.05;102571.09;4975022;28;20105;-64
2024/01/13 03:03:52;;;;;;;9.55;8.65;;;7.40;99.90;;;7.76;97.83;102566.13;4974757;28;20050;-64
2024/01/13 03:06:23;;;;;;;11.80;9.82;;;7.50;99.90;;;7.78;97.74;102567.06;4975065;28;20054;-64
2024/01/13 03:08:54;;;;;;;9.35;8.45;;;7.50;99.90;;;7.82;97.13;102553.16;4974930;28;20054;-64
2024/01/13 03:11:24;;;;;;;10.05;8.98;;;7.60;99.90;;;7.81;96.96;102555.75;4974864;28;20573;-64
2024/01/13 03:13:56;;;;;;;9.70;8.43;;;7.60;99.90;;;7.81;97.04;102550.50;4974583;28;20110;-63
2024/01/13 03:16:26;;;;;;;9.48;8.40;;;7.60;99.90;;;7.83;96.85;102549.72;4974863;28;20500;-64
2024/01/13 03:18:55;;;;;;;8.98;8.07;;;7.60;99.90;;;7.87;96.86;102542.78;4974374;28;20121;-64
2024/01/13 03:21:24;;;;;;;8.55;7.85;;;7.60;99.90;;;7.87;97.14;102546.34;4974394;28;20066;-64
2024/01/13 03:23:52;;;;;;;8.25;7.47;;;7.60;99.90;;;7.84;97.27;102534.81;4974603;28;20047;-63
2024/01/13 03:26:21;;;;;;;7.20;6.50;;;7.60;99.90;;;7.80;98.11;102528.50;4974418;28;20043;-63
2024/01/13 03:28:49;;;;;;;5.53;5.03;;;7.60;99.90;;;7.71;98.86;102529.94;4975069;28;20046;-64
2024/01/13 03:31:19;;;;;;;5.47;4.97;;;7.50;99.90;;;7.69;100.00;102527.25;4974265;28;20039;-64
2024/01/13 03:33:48;;;;;;;4.75;4.35;;;7.50;99.90;;;7.78;100.00;102516.16;4974377;28;20080;-64
2024/01/13 03:36:18;;;;;;;4.82;4.50;;;7.50;99.90;;;7.87;100.00;102516.44;4989253;28;20078;-63
2024/01/13 03:38:47;;;;;;;4.65;4.35;;;7.60;99.90;;;7.92;100.00;102521.03;4974257;28;20046;-63
2024/01/13 03:41:19;;;;;;;5.00;4.60;;;7.70;99.90;;;7.89;100.00;102514.75;4974134;28;20642;-63
2024/01/13 03:43:48;;;;;;;5.15;4.78;;;7.70;99.90;;;7.99;100.00;102512.47;4974055;28;20043;-64
2024/01/13 03:46:17;;;;;;;4.28;4.07;;;7.70;99.90;;;7.94;100.00;102508.78;4974244;28;20130;-64
2024/01/13 03:48:46;;;;;;;4.93;4.38;;;7.70;99.90;;;7.97;100.00;102501.00;4989102;28;20137;-63
2024/01/13 03:51:17;;;;;;;5.60;3.65;;;7.80;99.90;;;7.84;100.00;102493.53;4973389;28;20039;-63
2024/01/13 03:53:46;;;;;;;4.85;4.45;;;7.70;99.90;;;7.81;100.00;102485.53;4973988;28;20070;-64
2024/01/13 03:56:15;;;;;;;4.60;4.20;;;7.60;99.90;;;7.83;100.00;102472.41;4973800;28;20039;-64
2024/01/13 03:58:44;;;;;;;3.85;3.55;;;7.60;99.90;;;7.71;100.00;102482.53;4973602;28;20444;-64
2024/01/13 04:01:12;;;;;;;4.18;3.80;;;7.50;99.90;;;7.78;100.00;102469.63;4973995;28;20051;-63
2024/01/13 04:03:41;;;;;;;4.53;3.97;;;7.50;99.90;;;7.71;100.00;102464.09;4973862;28;20101;-64
2024/01/13 04:06:12;;;;;;;4.00;3.53;;;7.50;99.90;;;7.55;100.00;102462.69;4973822;28;20043;-63
2024/01/13 04:08:41;;;;;;;4.03;3.72;;;7.40;99.90;;;7.52;100.00;102465.25;4973765;28;20046;-64
2024/01/13 04:11:10;;;;;;;4.75;4.15;;;7.30;99.90;;;7.43;100.00;102464.94;4973475;28;20054;-64
2024/01/13 04:13:38;;;;;;;4.68;4.03;;;7.20;99.90;;;7.30;100.00;102431.13;4973423;28;20050;-64
2024/01/13 04:16:08;;;;;;;5.05;4.65;;;7.30;99.90;;;7.20;100.00;102455.38;4973972;28;20054;-64
2024/01/13 04:18:38;;;;;;;5.70;4.32;;;7.10;99.90;;;7.39;100.00;102454.25;4972570;28;20053;-63
2024/01/13 04:21:07;;;;;;;4.45;4.10;;;7.20;99.90;;;7.37;100.00;102453.31;4973327;28;20121;-64
2024/01/13 04:23:51;;;;;;;4.72;4.43;;;7.20;99.90;;;7.30;100.00;102467.97;4973815;28;20058;-64
2024/01/13 04:26:21;;;;;;;4.35;4.03;;;7.10;99.90;;;7.32;100.00;102449.63;4974411;28;20062;-64
2024/01/13 04:28:50;;;;;;;4.38;4.07;;;7.10;99.90;;;7.45;100.00;102444.84;4974815;28;20061;-63
2024/01/13 04:31:18;;;;;;;3.70;3.50;;;7.20;99.90;;;7.47;100.00;102439.63;4973749;28;20510;-64
2024/01/13 04:33:47;;;;;;;4.18;3.88;;;7.20;99.90;;;7.28;100.00;102444.25;4973287;28;20507;-64
2024/01/13 04:36:16;;;;;;;4.32;4.03;;;7.10;99.90;;;7.13;100.00;102461.25;4973137;28;20137;-64
2024/01/13 04:38:45;;;;;;;3.47;3.28;;;7.00;99.90;;;7.15;100.00;102454.31;4973198;28;20043;-63
2024/01/13 04:41:15;;;;;;;6.32;3.80;;;6.90;99.90;;;7.16;100.00;102458.75;4973219;28;20051;-64
2024/01/13 04:43:44;;;;;;;5.22;4.55;;;6.90;99.90;;;7.14;100.00;102455.16;4973555;28;20142;-64
2024/01/13 04:46:12;;;;;;;6.38;5.32;;;6.90;99.90;;;7.23;100.00;102444.94;4972770;28;20046;-63
2024/01/13 04:48:41;;;;;;;7.70;5.78;;;7.00;99.90;;;7.04;100.00;102450.41;4973348;28;20050;-64
2024/01/13 04:51:10;;;;;;;5.63;4.47;;;6.90;99.90;;;7.13;100.00;102449.00;4972717;28;20050;-67
2024/01/13 04:53:38;;;;;;;6.32;4.95;;;6.90;99.90;;;7.10;100.00;102443.59;4972919;28;20046;-64
2024/01/13 04:56:07;;;;;;;8.20;4.93;;;6.90;99.90;;;7.06;100.00;102418.06;4972658;28;20063;-65
2024/01/13 04:58:37;;;;;;;5.65;4.72;;;7.00;99.90;;;7.25;100.00;102448.53;4973137;28;20062;-64
2024/01/13 05:01:05;;;;;;;4.60;4.20;;;7.00;99.90;;;7.23;100.00;102447.56;4972520;28;20539;-65
2024/01/13 05:03:35;;;;;;;4.55;3.80;;;7.00;99.90;;;7.11;100.00;102442.78;4972536;28;20300;-64
2024/01/13 05:06:04;;;;;;;5.78;4.25;;;7.00;99.90;;;7.00;100.00;102435.34;4972517;28;20070;-64
2024/01/13 05:08:32;;;;;;;4.75;4.20;;;6.90;99.90;;;7.03;100.00;102444.25;4972522;28;20129;-64
2024/01/13 05:11:01;;;;;;;6.07;4.90;;;6.90;99.90;;;6.78;100.00;102433.69;4972718;28;20054;-65
2024/01/13 05:13:29;;;;;;;6.28;4.30;;;6.70;99.90;;;6.64;100.00;102445.44;4987526;28;20082;-64
2024/01/13 05:15:59;;;;;;;4.68;4.25;;;6.50;99.90;;;6.52;100.00;102450.28;4972330;28;20130;-65
2024/01/13 05:18:28;;;;;;;5.30;4.60;;;6.40;99.90;;;6.38;100.00;102447.13;4972597;28;20062;-63
2024/01/13 05:20:56;;;;;;;6.40;5.78;;;6.30;99.90;;;6.40;100.00;102457.69;4972259;28;20042;-65
2024/01/13 05:23:25;;;;;;;7.00;5.40;;;6.30;99.90;;;6.42;100.00;102455.09;4972260;28;20047;-65
2024/01/13 05:25:53;;;;;;;6.05;5.55;;;6.30;99.90;;;6.52;100.00;102450.28;4972283;28;20050;-66
2024/01/13 05:28:21;;;;;;;6.93;5.75;;;6.30;99.90;;;6.45;100.00;102447.31;4972647;28;20035;-66
2024/01/13 05:30:50;;;;;;;7.72;5.30;;;6.30;99.90;;;6.46;100.00;102443.88;4972139;28;20046;-66
2024/01/13 05:33:20;;;;;;;7.75;5.50;;;6.30;99.90;;;6.44;100.00;102432.41;4971668;28;20610;-66
2024/01/13 05:35:48;;;;;;;7.22;6.03;;;6.30;99.90;;;6.45;100.00;102437.72;4972433;28;20050;-66
2024/01/13 05:38:17;;;;;;;6.47;5.88;;;6.30;99.90;;;6.36;100.00;102429.50;4972086;28;20042;-66
2024/01/13 05:40:49;;;;;;;9.15;6.32;;;6.20;99.90;;;6.54;100.00;102431.91;4972226;28;20043;-66
2024/01/13 05:43:18;;;;;;;7.35;6.28;;;6.30;99.90;;;6.68;100.00;102417.56;4971988;28;20047;-66
2024/01/13 05:45:46;;;;;;;5.60;5.10;;;6.40;99.90;;;6.56;100.00;102414.47;4972029;28;20043;-66
2024/01/13 05:48:15;;;;;;;5.07;4.68;;;6.40;99.90;;;6.68;100.00;102413.16;4972276;28;20072;-66
2024/01/13 05:50:45;;;;;;;6.55;5.22;;;6.50;99.90;;;6.70;100.00;102413.22;4972223;28;20086;-66
2024/01/13 05:53:14;;;;;;;6.45;5.03;;;6.50;99.90;;;6.59;100.00;102415.47;4972235;28;20452;-66
2024/01/13 05:55:43;;;;;;;6.07;5.47;;;6.50;99.90;;;6.70;100.00;102415.84;4971808;28;20050;-66
2024/01/13 05:58:11;;;;;;;6.05;5.55;;;6.50;99.90;;;6.61;100.00;102423.41;4971839;28;20771;-67
2024/01/13 06:00:40;;;;;;;8.48;5.47;;;6.50;99.90;;;6.72;100.00;102411.53;4970755;28;20043;-65
2024/01/13 06:03:08;;;;;;;8.20;5.60;;;6.50;99.90;;;6.68;100.00;102407.91;4972372;28;20055;-63
2024/01/13 06:05:38;;;;;;;8.20;5.50;;;6.50;99.90;;;6.64;100.00;102402.50;4971816;28;20078;-64
2024/01/13 06:08:08;;;;;;;11.02;5.65;;;6.50;99.90;;;6.59;100.00;102414.56;4970795;28;20061;-64
2024/01/13 06:10:37;;;;;;;9.40;6.03;;;6.40;99.90;;;6.68;100.00;102405.28;4971742;28;20043;-65
2024/01/13 06:13:06;;;;;;;10.95;6.78;;;6.50;99.90;;;6.81;100.00;102390.84;4972441;28;20512;-64
2024/01/13 06:15:34;;;;;;;7.88;6.15;;;6.60;99.90;;;6.86;100.00;102387.53;4975730;28;20097;-65
2024/01/13 06:18:03;;;;;;;6.75;6.13;;;6.70;99.90;;;6.84;100.00;102375.16;4976197;28;20129;-65
2024/01/13 06:20:32;;;;;;;7.53;6.40;;;6.70;99.90;;;6.69;100.00;102388.69;4975325;28;20046;-66
2024/01/13 06:23:01;;;;;;;8.50;7.65;;;6.60;99.90;;;6.46;100.00;102386.97;4975464;28;20053;-64
2024/01/13 06:25:32;;;;;;;9.52;8.10;;;6.40;99.90;;;6.46;100.00;102371.19;4975593;28;20090;-63
2024/01/13 06:28:00;;;;;;;9.00;8.10;;;6.30;99.90;;;6.35;100.00;102369.88;4974402;28;20051;-64
2024/01/13 06:30:29;;;;;;;9.82;8.90;;;6.20;99.90;;;6.43;100.00;102338.66;4975434;28;20251;-64
2024/01/13 06:32:57;;;;;;;9.30;8.20;;;6.30;99.90;;;6.76;99.92;102355.59;4975418;28;20139;-64
2024/01/13 06:35:26;;;;;;;10.60;8.65;;;6.50;99.90;;;6.85;99.48;102342.78;4974213;28;20047;-63
2024/01/13 06:37:54;;;;;;;10.05;9.02;;;6.70;99.90;;;6.94;99.07;102345.72;4975284;28;20559;-65
2024/01/13 06:40:23;;;;;;;14.57;8.73;;;6.80;99.90;;;6.98;98.54;102351.13;4975057;28;20047;-65
2024/01/13 06:42:52;;;;;;;9.10;8.13;;;6.80;99.90;;;7.03;98.51;102348.63;4975362;28;20105;-65
2024/01/13 06:45:21;;;;;;;9.55;8.65;;;6.90;99.90;;;7.11;98.40;102360.31;4975159;28;20047;-65
2024/01/13 06:47:49;;;;;;;10.93;9.63;;;6.90;99.90;;;7.04;98.30;102332.03;4975232;28;20039;-64
2024/01/13 06:50:18;;;;;;;9.57;8.50;;;6.90;99.90;;;6.98;98.56;102331.81;4975263;28;20045;-64
2024/01/13 06:52:46;;;;;;;9.57;8.65;;;6.90;99.90;;;6.98;97.84;102319.56;4975179;28;20362;-64
2024/01/13 06:55:15;;;;;;;10.02;9.02;;;6.80;99.90;;;7.12;97.74;102320.03;4975390;28;20055;-64
2024/01/13 06:57:44;;;;;;;10.80;9.88;;;6.90;99.90;;;6.98;96.85;102321.31;4974881;28;20077;-65
2024/01/13 07:00:16;;;;;;;10.73;9.60;;;6.80;99.90;;;6.82;97.03;102321.63;4974835;28;20459;-65
2024/01/13 07:02:45;;;;;;;11.93;10.45;;;6.70;99.90;;;6.81;97.23;102314.59;4975103;28;20042;-65
2024/01/13 07:05:14;;;;;;;12.07;10.70;;;6.60;99.90;;;6.74;97.11;102300.31;4974699;28;20043;-66
2024/01/13 07:07:43;;;;;;;14.23;11.07;;;6.60;99.90;;;6.67;97.38;102321.09;4974767;28;20046;-66
2024/01/13 07:10:11;;;;;;;14.75;12.32;;;6.50;99.90;;;6.54;97.53;102321.53;4974802;28;20051;-66
2024/01/13 07:12:40;;;;;;;16.98;14.05;;;6.40;99.90;;;6.50;97.99;102309.09;4974634;28;20544;-66
2024/01/13 07:15:10;;;;;;;13.30;11.98;;;6.40;99.90;;;6.48;98.34;102318.66;4974933;28;20042;-67
2024/01/13 07:17:43;;;;;;;14.10;12.60;;;6.30;99.90;;;6.51;98.72;102313.50;4974865;28;20078;-65
2024/01/13 07:20:12;;;;;;;14.43;12.23;;;6.30;99.90;;;6.61;98.77;102303.38;4974324;28;20701;-66
2024/01/13 07:22:41;;;;;;;14.93;12.02;;;6.40;99.90;;;6.60;99.03;102295.44;4974648;28;20061;-66
2024/01/13 07:25:10;;;;;;;16.50;12.20;;;6.40;99.90;;;6.66;99.03;102274.63;4972050;28;20050;-66
2024/01/13 07:27:38;;;;;;;12.48;11.35;;;6.50;99.90;;;6.72;98.44;102301.09;4974206;28;20051;-67
2024/01/13 07:30:08;;;;;;;14.95;12.23;;;6.60;99.90;;;6.80;97.62;102294.38;4974774;28;20634;-66
2024/01/13 07:32:38;;;;;;;15.25;13.75;;;6.70;99.90;;;6.85;97.15;102300.69;4989386;28;20503;-66
2024/01/13 07:35:08;;;;;;;15.32;12.70;;;6.70;99.90;;;6.83;96.76;102278.72;4974410;28;20055;-66
2024/01/13 07:37:36;;;;;;;13.48;12.05;;;6.70;99.90;;;6.78;96.06;102269.75;4974052;28;20138;-67
2024/01/13 07:40:06;;;;;;;15.00;13.50;;;6.70;99.90;;;6.81;95.92;102296.19;4974296;28;20392;-67
2024/01/13 07:42:34;;;;;;;13.95;12.35;;;6.70;99.90;;;6.79;95.74;102293.50;4974049;28;20043;-66
2024/01/13 07:45:03;;;;;;;14.68;13.05;;;6.60;99.90;;;6.91;95.45;102288.63;4973936;28;20046;-67
2024/01/13 07:47:32;;;;;;;13.15;11.73;;;6.70;99.90;;;6.77;95.63;102271.53;4973507;28;20059;-67
2024/01/13 07:50:03;;;;;;;14.13;12.02;;;6.70;99.90;;;6.67;96.24;102258.00;4972617;28;20114;-67
2024/01/13 07:52:32;;;;;;;15.07;12.98;;;6.60;99.90;;;6.74;96.51;102268.78;4973902;28;20050;-66
2024/01/13 07:55:00;;;;;;;14.48;13.02;;;6.60;99.90;;;6.64;96.58;102282.44;4974036;28;20050;-65
2024/01/13 07:57:29;;;;;;;16.20;13.95;;;6.50;99.90;;;6.41;97.27;102287.78;4973746;28;20105;-64
2024/01/13 07:59:58;;;;;;;15.93;13.60;;;6.40;99.90;;;6.29;98.57;102278.59;4974223;28;20507;-65
2024/01/13 08:02:28;;;;;;;17.92;15.93;;;6.20;99.90;;;6.31;99.07;102274.28;4973670;28;20128;-65
2024/01/13 08:04:56;;;;;;;18.50;15.75;;;6.10;99.90;;;6.15;99.12;102266.72;4972077;28;20503;-66
2024/01/13 08:07:26;;;;;;;13.63;12.43;;;6.10;99.90;;;6.26;98.48;102262.72;4973496;28;20437;-66
2024/01/13 08:09:54;;;;;;;15.00;12.85;;;6.10;99.90;;;6.30;98.14;102266.34;4973450;28;20042;-63
2024/01/13 08:12:23;;;;;;;12.23;11.02;;;6.20;99.90;;;6.15;98.11;102273.69;4972151;28;20082;-64
2024/01/13 08:14:52;;;;;;;14.57;10.50;;;6.00;99.90;;;5.78;98.63;102287.19;4973664;28;20464;-65
2024/01/13 08:17:20;;;;;;;12.43;10.15;;;5.80;99.90;;;6.05;98.59;102282.97;4973385;28;20050;-63
2024/01/13 08:19:49;;;;;;;10.95;9.85;;;5.90;99.90;;;6.14;97.58;102272.81;4973507;28;20043;-63
2024/01/13 08:22:18;;;;;;;10.93;9.48;;;6.00;99.90;;;6.13;97.27;102268.41;4973240;28;20054;-64
2024/01/13 08:24:48;;;;;;;12.00;10.65;;;6.00;99.90;;;6.18;97.42;102268.53;4973246;28;20127;-64
2024/01/13 08:27:16;;;;;;;11.88;10.70;;;6.10;99.90;;;6.24;97.13;102274.03;4973551;28;20503;-66
2024/01/13 08:29:45;;;;;;;13.18;11.00;;;6.10;99.90;;;5.95;97.07;102259.84;4973172;28;20050;-67
2024/01/13 08:32:13;;;;;;;13.90;12.48;;;5.90;99.90;;;5.76;97.91;102257.34;4973384;28;20051;-64
2024/01/13 08:34:42;;;;;;;16.35;12.43;;;5.80;99.90;;;5.79;97.28;102273.19;4973154;28;20043;-64
2024/01/13 08:37:12;;;;;;;16.55;13.23;;;5.70;99.90;;;5.73;97.61;102243.22;4972603;28;20133;-64
2024/01/13 08:39:43;;;;;;;17.58;13.40;;;5.70;99.90;;;5.89;96.73;102269.22;4988205;28;20047;-63
2024/01/13 08:42:14;;;;;;;17.63;14.85;;;5.80;99.90;;;5.94;96.81;102270.31;4971811;28;20047;-65
2024/01/13 08:44:42;;;;;;;18.40;15.40;;;5.80;99.90;;;5.90;96.63;102271.03;4973533;28;20073;-64
2024/01/13 08:47:11;;;;;;;20.20;15.85;;;5.80;99.90;;;5.97;95.73;102273.03;4972921;28;20498;-63
2024/01/13 08:49:39;;;;;;;20.23;17.73;;;5.80;99.90;;;5.84;95.62;102265.53;4972981;28;20604;-64
2024/01/13 08:52:09;;;;;;;24.80;19.65;;;5.80;99.90;;;5.83;96.45;102253.19;4972827;28;20051;-64
2024/01/13 08:54:37;;;;;;;27.30;21.50;;;5.70;99.90;;;5.93;96.07;102258.91;4973184;28;20046;-62
2024/01/13 08:57:06;;;;;;;26.05;20.45;;;5.80;99.90;;;6.06;96.42;102275.97;4972689;28;20046;-60
2024/01/13 08:59:38;;;;;;;29.45;21.63;;;5.90;99.90;;;6.13;95.80;102251.75;4972450;28;20045;-62
2024/01/13 09:02:08;;;;;;;30.70;22.95;;;6.00;99.90;;;6.13;96.35;102260.53;4972539;28;20078;-64
2024/01/13 09:04:36;;;;;;;36.85;25.35;;;6.00;99.90;;;6.06;96.93;102261.13;4972919;28;20125;-64
2024/01/13 09:07:05;;;;;;;36.22;25.50;;;6.00;99.90;;;5.82;97.43;102248.81;4972999;28;20098;-63
2024/01/13 09:09:33;;;;;;;34.78;27.75;;;5.80;99.90;;;5.94;97.32;102237.03;4972646;28;20093;-64
2024/01/13 09:12:02;;;;;;;36.60;27.35;;;5.90;99.90;;;6.08;96.24;102255.91;4972647;28;20046;-64
2024/01/13 09:14:31;;;;;;;36.75;27.27;;;5.90;99.90;;;6.05;95.45;102259.34;4972317;28;20050;-65
2024/01/13 09:17:02;;;;;;;37.90;27.52;;;5.90;99.90;;;6.06;94.92;102258.50;4972277;28;20059;-64
2024/01/13 09:19:30;;;;;;;34.92;26.70;;;6.00;99.90;;;5.99;93.98;102251.25;4972526;28;20043;-63
2024/01/13 09:21:59;;;;;;;38.95;28.98;;;5.90;99.90;;;6.07;93.99;102262.03;4972509;28;20449;-65
2024/01/13 09:24:27;;;;;;;39.95;29.02;;;5.90;99.90;;;5.95;93.89;102228.34;4972483;28;20051;-64
2024/01/13 09:26:56;;;;;;;42.80;29.65;;;5.90;99.90;;;6.04;94.18;102257.53;4971042;28;20043;-64
2024/01/13 09:29:25;;;;;;;44.65;31.15;;;5.90;99.90;;;6.07;94.69;102257.66;4972333;28;20499;-65
2024/01/13 09:31:53;;;;;;;43.70;30.52;;;5.90;99.90;;;6.03;94.87;102249.63;4972001;28;20047;-65
2024/01/13 09:34:24;;;;;;;46.75;30.20;;;5.90;99.90;;;6.05;94.82;102248.84;4972374;28;20456;-65
2024/01/13 09:36:53;;;;;;;39.80;29.25;;;5.90;99.90;;;5.96;95.04;102239.75;4972384;28;20051;-65
2024/01/13 09:39:22;;;;;;;37.88;28.92;;;5.80;99.90;;;6.11;95.05;102240.28;4972488;28;20058;-64
2024/01/13 09:41:54;;;;;;;45.70;30.42;;;5.90;99.90;;;5.97;94.98;102234.53;4972008;28;20085;-66
2024/01/13 09:44:25;;;;;;;40.85;30.27;;;5.90;99.90;;;5.92;95.00;102238.72;4972133;28;20086;-65
2024/01/13 09:46:57;;;;;;;40.85;31.23;;;5.80;99.90;;;5.92;95.34;102230.84;4970587;28;20050;-65
2024/01/13 09:49:30;;;;;;;41.00;30.73;;;5.80;99.90;;;5.86;95.31;102229.75;4971430;28;20042;-64
2024/01/13 09:52:05;;;;;;;40.92;31.02;;;5.70;99.90;;;5.85;95.91;102230.56;4972215;28;20125;-64
2024/01/13 09:54:35;;;;;;;43.40;31.45;;;5.70;99.90;;;5.92;95.59;102222.94;4972115;28;20166;-64
2024/01/13 09:57:05;;;;;;;46.17;33.05;;;5.70;99.90;;;5.90;95.20;102236.88;4972332;28;20057;-64
2024/01/13 09:59:34;;;;;;;40.20;31.10;;;5.70;99.90;;;5.92;95.03;102237.84;4972513;28;20098;-64
2024/01/13 10:02:03;;;;;;;39.55;31.77;;;5.80;99.90;;;5.92;94.85;102224.72;4971675;28;20054;-64
2024/01/13 10:04:37;;;;;;;42.28;32.67;;;5.80;99.90;;;5.90;95.13;102215.88;4972057;28;20464;-64
2024/01/13 10:07:08;;;;;;;45.65;32.58;;;5.80;99.90;;;6.06;94.97;102219.09;4971806;28;20094;-64
2024/01/13 10:09:38;;;;;;;48.13;33.28;;;5.80;99.90;;;6.10;94.46;102223.63;4970769;28;20114;-65
2024/01/13 10:12:08;;;;;;;49.58;35.08;;;6.00;99.90;;;5.99;95.04;102203.97;4971828;28;20054;-64
2024/01/13 10:14:41;;;;;;;44.63;33.17;;;5.90;99.90;;;5.86;94.32;102222.75;4971470;28;20070;-64
2024/01/13 10:17:12;;;;;;;47.00;33.95;;;5.90;99.90;;;6.03;93.92;102221.63;4971598;28;20081;-64
2024/01/13 10:19:44;;;;;;;48.10;34.30;;;5.90;99.90;;;6.19;93.15;102223.06;4970757;28;20051;-65
2024/01/13 10:22:15;;;;;;;46.15;35.67;;;6.00;99.90;;;6.24;92.54;102219.75;4971663;28;20081;-64